Appleton, Wisconsin
Current Conditions -  °F | °C
As of 2:45 PM on Wednesday 17 Dec 2014 (Local Time) from KATW Reporting Station
Scattered Clouds Scattered Clouds  
Wind Chill: 13°   Ceiling: Unl
Heat Index: 25°   Visibility: 10mi
Dew Point: 12°   Wind: 13mph
Humidity: 59%   Direction: 290°WNW
Pressure: 30.17"   Gusts: NA
Location:  44.26°N, 88.42°W
Report Text: KATW 172045Z 29011KT 10SM SCT025 SCT060 M04/M11 A3017
Loading
Personal Weather Stations






























Interactive Weather Map New forecast layout! Learn more

10-Day Weather Forecast

Advertisements
Track Severe Weather on mobile